Time;durP1;ratioP1;P1;durP2;ratioP2;P2;SDS_P1;SDS_P2;PMS_P1;PMS_P2;Temp;Humidity;BMP_temperature;BMP_pressure;BME280_temperature;BME280_humidity;BME280_pressure;Samples;Min_cycle;Max_cycle;Signal;HPM_P1;HPM_P2
2020/12/13 00:02:33;;;;;;;25.88;20.02;;;;;;;7.39;82.35;99172.78;9758087;28;20063;-72
2020/12/13 00:07:35;;;;;;;25.10;19.98;;;;;;;7.39;82.29;99178.06;9734735;28;20585;-72
2020/12/13 00:12:37;;;;;;;28.23;19.73;;;;;;;7.44;82.46;99182.97;9765608;28;24198;-71
2020/12/13 00:17:38;;;;;;;25.35;19.67;;;;;;;7.43;82.35;99191.88;9773903;28;20173;-72
2020/12/13 00:22:39;;;;;;;24.02;19.15;;;;;;;7.47;82.43;99184.53;9785649;28;20061;-71
2020/12/13 00:27:40;;;;;;;24.83;20.60;;;;;;;7.42;82.36;99185.75;9778188;28;20140;-72
2020/12/13 00:32:42;;;;;;;25.95;19.73;;;;;;;7.45;82.19;99182.00;9779877;28;20135;-72
2020/12/13 00:37:43;;;;;;;23.85;18.58;;;;;;;7.50;82.19;99197.50;9784035;28;20844;-71
2020/12/13 00:42:44;;;;;;;23.08;18.70;;;;;;;7.52;82.11;99190.25;9788115;28;20133;-72
2020/12/13 00:47:45;;;;;;;27.20;21.17;;;;;;;7.54;82.44;99198.94;9778596;28;20097;-73
2020/12/13 00:52:47;;;;;;;23.17;18.45;;;;;;;7.55;81.63;99196.16;9776672;28;20058;-72
2020/12/13 00:57:48;;;;;;;25.73;19.92;;;;;;;7.58;81.74;99205.63;9775639;28;22942;-72
2020/12/13 01:02:57;;;;;;;23.15;18.13;;;;;;;7.59;81.93;99207.31;9748184;28;20323;-71
2020/12/13 01:07:59;;;;;;;24.10;19.15;;;;;;;7.55;81.79;99219.13;9768959;28;20127;-72
2020/12/13 01:13:01;;;;;;;23.38;18.83;;;;;;;7.56;81.94;99223.47;9755530;28;20147;-71
2020/12/13 01:18:03;;;;;;;22.33;17.52;;;;;;;7.58;81.88;99237.41;9738819;28;20063;-71
2020/12/13 01:23:05;;;;;;;25.00;18.35;;;;;;;7.61;81.95;99243.31;9717669;28;22886;-71
2020/12/13 01:28:06;;;;;;;23.20;18.58;;;;;;;7.60;81.84;99243.44;9745730;28;20707;-71
2020/12/13 01:33:07;;;;;;;25.15;19.73;;;;;;;7.55;82.21;99232.38;9733212;28;20903;-71
2020/12/13 01:38:09;;;;;;;24.60;18.75;;;;;;;7.60;81.96;99251.38;9707903;28;20068;-72
2020/12/13 01:43:10;;;;;;;24.40;19.65;;;;;;;7.60;81.70;99251.38;9722197;28;20051;-72
2020/12/13 01:48:11;;;;;;;26.77;20.40;;;;;;;7.60;82.24;99256.69;9743035;28;20082;-71
2020/12/13 01:53:15;;;;;;;25.70;21.23;;;;;;;7.49;81.97;99247.00;9725897;28;20059;-72
2020/12/13 01:58:20;;;;;;;25.98;19.27;;;;;;;7.57;81.62;99256.94;9746359;28;20055;-72
2020/12/13 02:03:24;;;;;;;25.65;19.73;;;;;;;7.62;81.97;99265.31;9746824;28;20062;-71
2020/12/13 02:08:37;;;;;;;23.50;18.50;;;;;;;7.61;81.92;99268.94;9730032;28;20537;-72
2020/12/13 02:13:38;;;;;;;23.52;18.65;;;;;;;7.65;82.09;99280.13;9728638;28;21197;-72
2020/12/13 02:18:42;;;;;;;25.42;19.10;;;;;;;7.64;82.26;99295.19;9737440;28;20057;-72
2020/12/13 02:23:44;;;;;;;22.65;18.90;;;;;;;7.56;81.95;99289.69;9739762;28;24032;-73
2020/12/13 02:28:46;;;;;;;25.05;19.02;;;;;;;7.46;82.19;99281.69;9727076;28;20059;-72
2020/12/13 02:33:47;;;;;;;27.25;20.33;;;;;;;7.57;82.36;99301.97;9748284;28;20186;-72
2020/12/13 02:38:48;;;;;;;28.58;21.85;;;;;;;7.56;82.68;99305.56;9739160;28;20066;-71
2020/12/13 02:43:50;;;;;;;30.45;22.50;;;;;;;7.61;82.55;99316.59;9750500;28;21908;-72
2020/12/13 02:48:51;;;;;;;33.70;23.02;;;;;;;7.61;82.90;99321.91;9743902;28;20060;-72
2020/12/13 02:53:52;;;;;;;27.88;21.00;;;;;;;7.60;83.35;99320.25;9733206;28;20059;-72
2020/12/13 02:58:54;;;;;;;26.90;21.30;;;;;;;7.64;83.57;99326.97;9730668;28;21772;-73
2020/12/13 03:03:55;;;;;;;30.08;21.20;;;;;;;7.64;83.87;99321.69;9734110;28;20137;-72
2020/12/13 03:08:56;;;;;;;34.92;21.25;;;;;;;7.56;85.08;99326.75;9731867;28;20407;-72
2020/12/13 03:13:57;;;;;;;28.05;20.45;;;;;;;7.49;85.39;99333.53;9722549;28;20078;-71
2020/12/13 03:18:59;;;;;;;27.35;20.67;;;;;;;7.53;85.22;99324.38;9730342;28;20054;-71
2020/12/13 03:24:01;;;;;;;27.17;21.17;;;;;;;7.58;84.86;99332.75;9749473;28;20115;-71
2020/12/13 03:29:02;;;;;;;28.60;20.98;;;;;;;7.61;84.88;99345.75;9733821;28;20524;-72
2020/12/13 03:34:03;;;;;;;23.17;18.30;;;;;;;7.57;85.23;99347.00;9713415;28;20114;-71
2020/12/13 03:39:05;;;;;;;25.45;19.98;;;;;;;7.51;85.65;99350.16;9738677;28;20088;-73
2020/12/13 03:44:06;;;;;;;25.67;20.95;;;;;;;7.53;85.68;99366.75;9739229;28;20474;-71
2020/12/13 03:49:07;;;;;;;25.25;18.60;;;;;;;7.51;85.58;99368.69;9725527;28;20170;-72
2020/12/13 03:54:10;;;;;;;23.05;19.33;;;;;;;7.45;85.50;99359.44;9740730;28;20080;-71
2020/12/13 03:59:11;;;;;;;23.52;19.42;;;;;;;7.56;85.41;99366.47;9745586;28;20919;-72
2020/12/13 04:04:12;;;;;;;28.42;21.25;;;;;;;7.58;85.24;99377.78;9740455;28;20069;-73
2020/12/13 04:09:13;;;;;;;23.95;18.58;;;;;;;7.52;85.62;99375.63;9736909;28;20070;-71
2020/12/13 04:14:15;;;;;;;22.88;19.13;;;;;;;7.52;85.34;99386.22;9723816;28;20138;-71
2020/12/13 04:19:16;;;;;;;22.58;18.63;;;;;;;7.56;85.28;99385.03;9735260;28;20055;-71
2020/12/13 04:24:18;;;;;;;22.70;18.92;;;;;;;7.67;85.00;99384.13;9718481;28;20506;-71
2020/12/13 04:29:20;;;;;;;22.88;18.75;;;;;;;7.70;84.68;99395.34;9742777;28;22403;-71
2020/12/13 04:34:21;;;;;;;21.33;18.25;;;;;;;7.76;84.45;99394.84;9732709;28;20085;-73
2020/12/13 04:39:22;;;;;;;21.25;18.23;;;;;;;7.84;84.24;99406.63;9751176;28;20113;-71
2020/12/13 04:44:26;;;;;;;21.80;18.73;;;;;;;7.81;84.13;99409.47;9746748;28;20153;-71
2020/12/13 04:49:30;;;;;;;22.63;18.60;;;;;;;7.81;84.25;99418.28;9740689;28;20059;-72
2020/12/13 04:54:31;;;;;;;21.77;17.83;;;;;;;7.78;84.12;99414.09;9741133;28;20059;-71
2020/12/13 04:59:34;;;;;;;19.33;17.23;;;;;;;7.93;83.77;99424.41;9729634;28;20562;-70
2020/12/13 05:04:35;;;;;;;19.38;17.02;;;;;;;7.93;83.74;99422.56;9722838;28;20074;-71
2020/12/13 05:09:39;;;;;;;18.77;16.10;;;;;;;7.96;83.81;99427.63;9739382;28;20122;-72
2020/12/13 05:14:47;;;;;;;21.27;17.87;;;;;;;7.96;83.50;99426.78;9727781;28;20078;-71
2020/12/13 05:19:49;;;;;;;18.58;16.35;;;;;;;8.03;83.24;99443.88;9722044;28;20710;-70
2020/12/13 05:24:51;;;;;;;20.95;16.33;;;;;;;8.00;83.35;99444.13;9743292;28;20232;-71
2020/12/13 05:29:55;;;;;;;19.00;16.40;;;;;;;8.03;83.11;99441.22;9732973;28;20055;-74
2020/12/13 05:34:56;;;;;;;21.77;17.70;;;;;;;7.93;83.27;99435.81;9732076;28;20142;-72
2020/12/13 05:39:58;;;;;;;22.15;17.25;;;;;;;8.06;82.64;99451.56;9723171;28;20058;-71
2020/12/13 05:55:13;;;;;;;20.38;17.20;;;;;;;8.01;82.76;99467.00;9733937;28;22388;-70
2020/12/13 06:00:16;;;;;;;23.38;18.95;;;;;;;7.91;83.18;99460.75;9724560;28;20058;-69
2020/12/13 06:05:21;;;;;;;22.92;19.40;;;;;;;7.88;83.55;99467.19;9733152;28;20685;-68
2020/12/13 06:10:26;;;;;;;24.20;19.05;;;;;;;7.93;83.67;99483.53;9726550;28;20108;-70
2020/12/13 06:15:28;;;;;;;22.97;19.83;;;;;;;7.91;83.11;99490.78;9747050;28;20055;-69
2020/12/13 06:20:30;;;;;;;20.98;18.42;;;;;;;7.91;83.16;99492.56;9730042;28;24431;-73
2020/12/13 06:25:31;;;;;;;20.55;16.48;;;;;;;7.85;83.51;99493.06;9739926;28;20110;-74
2020/12/13 06:30:36;;;;;;;20.80;16.08;;;;;;;7.81;83.60;99503.09;9744945;28;20055;-71
2020/12/13 06:35:42;;;;;;;19.25;17.23;;;;;;;7.81;83.46;99504.88;9743447;28;20115;-72
2020/12/13 06:40:47;;;;;;;18.92;16.08;;;;;;;7.74;83.61;99508.00;9722370;28;20099;-73
2020/12/13 06:46:08;;;;;;;;;;;;;;;7.84;83.46;99524.03;9715540;28;20112;-73
2020/12/13 06:51:15;;;;;;;17.67;14.75;;;;;;;7.86;83.49;99521.25;9744040;28;19930;-68
2020/12/13 06:56:19;;;;;;;18.90;15.13;;;;;;;7.74;83.51;99526.56;9718903;28;20051;-70
2020/12/13 07:01:25;;;;;;;18.83;15.57;;;;;;;7.77;83.96;99544.84;9711215;28;20055;-71
2020/12/13 07:06:44;;;;;;;22.55;16.63;;;;;;;7.77;83.98;99536.91;9725848;28;20058;-69
2020/12/13 07:11:45;;;;;;;21.23;16.77;;;;;;;7.70;83.88;99542.81;9738559;28;20117;-74
2020/12/13 07:16:49;;;;;;;19.90;16.83;;;;;;;7.76;84.13;99553.78;9736198;28;20241;-70
2020/12/13 07:21:58;;;;;;;18.05;14.98;;;;;;;7.89;83.43;99563.41;9729238;28;20065;-71
2020/12/13 07:27:01;;;;;;;20.20;15.98;;;;;;;7.93;83.43;99559.56;9712296;28;20055;-71
2020/12/13 07:32:05;;;;;;;18.17;15.27;;;;;;;8.01;82.84;99573.00;9727047;28;20078;-73
2020/12/13 07:37:07;;;;;;;17.05;15.23;;;;;;;8.02;83.05;99572.06;9716198;28;20055;-69
2020/12/13 07:42:09;;;;;;;18.83;16.45;;;;;;;8.10;82.91;99584.69;9747052;28;20133;-68
2020/12/13 07:47:10;;;;;;;19.08;16.23;;;;;;;8.06;82.89;99596.50;9739649;28;20063;-71
2020/12/13 07:52:13;;;;;;;19.17;15.15;;;;;;;8.05;83.00;99592.19;9720744;28;20055;-69
2020/12/13 07:57:18;;;;;;;20.00;16.20;;;;;;;8.06;82.93;99607.97;9724537;28;20051;-69
2020/12/13 08:02:19;;;;;;;19.42;15.90;;;;;;;8.09;83.21;99609.50;9754205;28;20063;-70
2020/12/13 08:07:21;;;;;;;19.75;16.75;;;;;;;8.11;83.29;99613.72;9732227;28;20062;-69
2020/12/13 08:12:33;;;;;;;20.35;15.93;;;;;;;8.00;83.45;99604.94;9735907;28;20987;-71
2020/12/13 08:17:35;;;;;;;19.10;16.92;;;;;;;8.09;83.74;99628.06;9724727;28;20063;-71
2020/12/13 08:22:41;;;;;;;16.65;14.90;;;;;;;8.10;83.54;99619.97;9707836;28;20169;-69
2020/12/13 08:27:44;;;;;;;17.60;14.65;;;;;;;8.13;83.27;99625.03;9730430;28;20143;-73
2020/12/13 08:32:46;;;;;;;17.58;15.32;;;;;;;7.99;83.74;99627.97;9717611;28;20575;-71
2020/12/13 08:37:54;;;;;;;18.75;16.05;;;;;;;8.13;83.82;99642.75;9749164;28;20113;-71
2020/12/13 08:42:58;;;;;;;19.88;16.52;;;;;;;8.16;83.30;99628.41;9739087;28;20062;-71
2020/12/13 08:48:01;;;;;;;17.48;15.10;;;;;;;8.15;83.77;99643.47;9728922;28;20067;-70
2020/12/13 08:53:02;;;;;;;18.35;15.88;;;;;;;8.19;83.53;99652.03;9719341;28;20828;-70
2020/12/13 08:58:03;;;;;;;21.58;16.65;;;;;;;8.03;83.65;99653.25;9711841;28;20421;-69
2020/12/13 09:03:05;;;;;;;19.55;15.65;;;;;;;7.96;84.37;99670.63;9713369;28;20055;-71
2020/12/13 09:08:08;;;;;;;19.88;16.70;;;;;;;7.91;84.65;99670.13;9715754;28;20133;-72
2020/12/13 09:13:12;;;;;;;19.00;15.85;;;;;;;8.00;84.32;99677.38;9745881;28;20353;-71
2020/12/13 09:18:13;;;;;;;18.40;16.42;;;;;;;8.07;84.33;99683.00;9721157;28;20055;-71
2020/12/13 09:23:21;;;;;;;21.23;17.10;;;;;;;8.04;84.31;99689.38;9735314;28;20074;-72
2020/12/13 09:28:22;;;;;;;20.02;16.85;;;;;;;8.04;84.35;99686.75;9722650;28;20145;-70
2020/12/13 09:33:24;;;;;;;17.20;15.35;;;;;;;7.96;84.40;99705.91;9749853;28;20083;-68
2020/12/13 09:38:26;;;;;;;18.10;15.02;;;;;;;8.11;84.28;99721.56;9726751;28;20162;-69
2020/12/13 09:43:28;;;;;;;18.13;15.52;;;;;;;8.01;84.52;99724.09;9721651;28;20054;-72
2020/12/13 09:48:29;;;;;;;16.45;14.35;;;;;;;8.07;84.76;99734.22;9735353;28;20062;-70
2020/12/13 09:53:30;;;;;;;14.18;12.73;;;;;;;7.87;85.14;99719.03;9717224;28;20094;-72
2020/12/13 09:58:31;;;;;;;19.08;14.55;;;;;;;7.94;85.11;99728.19;9710174;28;20202;-73
2020/12/13 10:03:33;;;;;;;15.25;12.23;;;;;;;8.07;84.76;99734.22;9727209;28;20051;-72
2020/12/13 10:13:54;;;;;;;14.05;12.15;;;;;;;8.36;83.65;99738.19;9755061;28;21738;-70
2020/12/13 10:18:56;;;;;;;14.88;13.38;;;;;;;8.39;83.25;99735.28;9765825;28;20054;-72
2020/12/13 10:23:58;;;;;;;13.13;10.82;;;;;;;8.51;83.15;99733.50;9784094;28;20187;-72
2020/12/13 10:29:00;;;;;;;13.80;12.30;;;;;;;8.52;82.86;99735.19;9784126;28;20062;-71
2020/12/13 10:34:03;;;;;;;13.13;10.80;;;;;;;8.56;82.70;99741.94;9791379;28;22327;-69
2020/12/13 10:39:07;;;;;;;12.85;11.55;;;;;;;8.62;81.77;99738.81;9780703;28;20504;-70
2020/12/13 10:44:08;;;;;;;11.75;10.55;;;;;;;8.70;81.83;99751.44;9774164;28;20063;-69
2020/12/13 10:49:10;;;;;;;13.02;10.80;;;;;;;8.82;81.67;99751.28;9781956;28;20058;-71
2020/12/13 10:54:11;;;;;;;12.30;10.95;;;;;;;8.89;80.71;99753.44;9782155;28;20050;-71
2020/12/13 10:59:12;;;;;;;10.82;9.55;;;;;;;8.84;81.13;99756.47;9779569;28;20105;-71
2020/12/13 11:04:17;;;;;;;11.90;9.23;;;;;;;8.87;80.46;99756.22;9769088;28;22790;-72
2020/12/13 11:09:18;;;;;;;10.18;8.93;;;;;;;8.77;80.30;99764.09;9773809;28;20074;-71
2020/12/13 11:14:20;;;;;;;10.98;9.68;;;;;;;8.95;80.31;99756.44;9753594;28;20146;-70
2020/12/13 11:19:21;;;;;;;9.52;8.63;;;;;;;9.12;79.33;99749.75;9729143;28;20190;-70
2020/12/13 11:24:22;;;;;;;10.27;8.00;;;;;;;9.13;78.65;99740.81;9718167;28;20059;-70
2020/12/13 11:29:24;;;;;;;9.65;8.38;;;;;;;9.34;78.18;99770.06;9730300;28;20054;-69
2020/12/13 11:34:26;;;;;;;9.00;7.88;;;;;;;9.25;78.24;99767.31;9726716;28;20432;-71
2020/12/13 11:39:27;;;;;;;10.55;8.52;;;;;;;9.25;78.31;99775.28;9719668;28;20134;-69
2020/12/13 11:44:29;;;;;;;10.05;8.27;;;;;;;9.31;78.02;99770.31;9712585;28;20133;-70
2020/12/13 11:49:30;;;;;;;8.50;7.60;;;;;;;9.32;77.77;99772.00;9747445;28;20299;-71
2020/12/13 11:54:31;;;;;;;9.70;7.90;;;;;;;9.36;77.14;99783.22;9723956;28;20301;-71
2020/12/13 11:59:33;;;;;;;7.93;6.80;;;;;;;9.31;77.49;99774.78;9736473;28;20687;-70
2020/12/13 12:04:34;;;;;;;7.75;6.75;;;;;;;9.36;76.85;99775.25;9704981;28;20082;-69
2020/12/13 12:09:35;;;;;;;6.80;5.75;;;;;;;9.28;76.15;99778.53;9712963;28;20521;-70
2020/12/13 12:14:37;;;;;;;9.23;6.65;;;;;;;9.32;76.26;99771.16;9717888;28;20061;-70
2020/12/13 12:19:39;;;;;;;6.70;6.00;;;;;;;9.42;75.93;99773.91;9734122;28;21832;-70
2020/12/13 12:24:41;;;;;;;5.95;5.35;;;;;;;9.47;74.73;99764.56;9729692;28;21426;-71
2020/12/13 12:29:42;;;;;;;8.15;5.50;;;;;;;9.46;74.84;99778.81;9737955;28;20079;-71
2020/12/13 12:34:43;;;;;;;9.45;5.63;;;;;;;9.55;75.83;99766.59;9749775;28;20073;-71
2020/12/13 12:39:44;;;;;;;6.18;5.57;;;;;;;9.71;74.44;99774.09;9721811;28;24740;-70
2020/12/13 12:44:46;;;;;;;5.82;4.90;;;;;;;9.68;73.55;99772.56;9713173;28;22961;-68
2020/12/13 12:49:47;;;;;;;6.90;4.57;;;;;;;9.61;72.65;99765.22;9720731;28;20143;-70
2020/12/13 12:54:48;;;;;;;7.07;5.20;;;;;;;9.78;73.04;99777.91;9739225;28;20058;-70
2020/12/13 13:00:26;;;;;;;6.50;4.93;;;;;;;9.87;71.71;99781.63;9743775;28;20189;-70
2020/12/13 13:10:32;;;;;;;4.40;4.00;;;;;;;10.04;70.64;99777.50;11034784;23;20419;-71
2020/12/13 13:15:46;;;;;;;7.20;4.40;;;;;;;10.23;69.73;99790.91;9801964;28;20176;-73
2020/12/13 13:20:48;;;;;;;5.03;4.38;;;;;;;10.32;69.79;99791.09;9767298;28;20132;-72
2020/12/13 13:25:49;;;;;;;3.38;3.00;;;;;;;10.20;69.07;99799.16;9749378;28;20624;-71
2020/12/13 13:30:50;;;;;;;4.60;4.13;;;;;;;10.14;68.93;99789.03;9744805;28;20487;-71
2020/12/13 13:35:52;;;;;;;5.20;4.57;;;;;;;10.16;69.12;99788.91;9743965;28;20237;-72
2020/12/13 13:40:53;;;;;;;4.40;4.00;;;;;;;10.73;68.75;99794.63;9976099;28;20117;-69
2020/12/13 13:50:58;;;;;;;4.38;3.92;;;;;;;12.05;63.88;99800.44;9777905;28;20055;-73
2020/12/13 13:56:07;;;;;;;5.35;3.55;;;;;;;11.38;65.50;99807.50;9769885;28;20059;-73
2020/12/13 14:01:08;;;;;;;5.32;4.47;;;;;;;10.95;66.95;99802.41;9760884;28;20141;-72
2020/12/13 14:11:50;;;;;;;3.72;3.42;;;;;;;10.42;67.96;99814.13;9776606;28;20059;-72
2020/12/13 14:16:51;;;;;;;4.25;3.85;;;;;;;10.47;68.98;99826.22;9758127;28;20138;-74
2020/12/13 14:21:53;;;;;;;5.68;4.57;;;;;;;10.36;69.33;99819.16;9757487;28;20118;-72
2020/12/13 14:26:55;;;;;;;6.53;5.93;;;;;;;10.14;68.47;99836.09;9759064;28;21190;-73
2020/12/13 14:31:56;;;;;;;4.82;2.95;;;;;;;10.07;68.77;99825.09;9760131;28;20090;-73
2020/12/13 14:36:57;;;;;;;2.92;2.25;;;;;;;10.11;68.79;99826.53;9780932;28;20054;-73
2020/12/13 14:41:59;;;;;;;5.47;4.97;;;;;;;10.10;68.55;99822.19;9761111;28;20057;-71
2020/12/13 14:47:00;;;;;;;13.60;12.30;;;;;;;10.14;68.08;99831.59;9778499;28;20054;-72
2020/12/13 14:52:02;;;;;;;6.65;6.00;;;;;;;10.04;67.73;99825.38;9792794;28;20105;-69
2020/12/13 14:57:04;;;;;;;10.82;9.73;;;;;;;9.77;68.54;99829.38;9794107;28;20058;-75
2020/12/13 15:02:05;;;;;;;63.72;43.53;;;;;;;9.57;68.92;99827.56;9781295;28;20129;-71
2020/12/13 15:07:07;;;;;;;19.38;14.98;;;;;;;9.41;69.31;99842.09;9772335;28;23430;-71
2020/12/13 15:12:28;;;;;;;3.28;2.40;;;;;;;9.25;70.08;99837.22;9756556;28;20627;-72
2020/12/13 15:17:42;;;;;;;5.25;3.20;;;;;;;9.10;70.30;99836.66;9759627;28;20133;-72
2020/12/13 15:22:44;;;;;;;5.25;4.85;;;;;;;9.03;70.66;99838.94;9755858;28;20439;-73
2020/12/13 15:27:45;;;;;;;5.40;3.00;;;;;;;8.97;70.74;99842.09;9772138;28;20619;-73
2020/12/13 15:32:46;;;;;;;5.45;3.97;;;;;;;8.95;71.57;99844.03;9785530;28;20085;-70
2020/12/13 15:37:47;;;;;;;5.22;4.13;;;;;;;9.00;71.69;99841.00;9772899;28;20130;-71
2020/12/13 15:42:49;;;;;;;3.90;3.53;;;;;;;9.01;72.45;99848.84;9784047;28;20510;-72
2020/12/13 15:47:50;;;;;;;5.30;3.95;;;;;;;9.01;72.33;99859.47;9754951;28;26126;-72
2020/12/13 15:52:54;;;;;;;6.63;4.63;;;;;;;8.95;72.57;99856.47;9777666;28;20564;-72
2020/12/13 15:57:56;;;;;;;5.40;4.90;;;;;;;8.94;72.87;99841.50;9763653;28;20193;-72
2020/12/13 16:02:57;;;;;;;6.32;5.10;;;;;;;8.86;73.32;99863.38;9768155;28;20509;-71
2020/12/13 16:08:00;;;;;;;6.45;5.38;;;;;;;8.79;73.72;99855.03;9779123;28;20059;-73
2020/12/13 16:13:01;;;;;;;5.60;5.00;;;;;;;8.74;74.24;99867.00;9785584;28;20055;-72
2020/12/13 16:18:06;;;;;;;6.00;4.85;;;;;;;8.65;74.81;99855.28;9805519;28;22156;-70
2020/12/13 16:23:07;;;;;;;7.07;5.32;;;;;;;8.58;75.31;99860.22;9758816;28;20047;-70
2020/12/13 16:28:08;;;;;;;9.27;6.85;;;;;;;8.49;75.54;99858.28;9768924;28;20086;-72
2020/12/13 16:33:09;;;;;;;22.38;19.90;;;;;;;8.34;76.02;99870.91;9771019;28;20051;-70
2020/12/13 16:38:12;;;;;;;30.75;23.33;;;;;;;8.28;76.71;99863.44;9763411;28;20080;-73
2020/12/13 16:48:30;;;;;;;22.75;17.77;;;;;;;8.13;75.49;99863.63;9748699;28;20579;-72
2020/12/13 16:54:01;;;;;;;21.35;15.90;;;;;;;8.11;75.99;99870.03;9774183;28;20087;-72
2020/12/13 16:58:52;;;;;;;7.78;6.30;;;;;;;8.04;75.69;99874.94;9769757;28;20086;-70
2020/12/13 17:03:54;;;;;;;7.57;6.07;;;;;;;7.94;76.60;99872.16;9783723;28;20054;-70
2020/12/13 17:08:56;;;;;;;10.52;6.07;;;;;;;7.96;75.69;99869.38;9768957;28;23198;-72
2020/12/13 17:13:57;;;;;;;7.75;5.68;;;;;;;7.86;75.88;99877.19;9778079;28;20108;-71
2020/12/13 17:19:02;;;;;;;7.10;6.22;;;;;;;7.81;75.51;99887.28;9765289;28;20051;-71
2020/12/13 17:24:04;;;;;;;8.52;5.88;;;;;;;7.87;75.75;99892.13;9774399;28;20066;-72
2020/12/13 17:29:05;;;;;;;7.10;6.38;;;;;;;7.95;75.36;99880.94;9784331;28;20137;-74
2020/12/13 17:34:06;;;;;;;9.15;6.85;;;;;;;8.10;75.06;99885.06;9765727;28;20412;-72
2020/12/13 17:39:08;;;;;;;9.15;6.20;;;;;;;8.24;74.31;99880.53;9759137;28;20200;-73
2020/12/13 17:49:33;;;;;;;8.23;6.55;;;;;;;7.99;72.63;99881.53;9770433;28;20138;-73
2020/12/13 17:54:42;;;;;;;6.43;4.97;;;;;;;7.99;72.25;99876.25;9774894;28;20066;-72
2020/12/13 17:59:49;;;;;;;5.20;4.57;;;;;;;8.08;72.66;99884.34;9764253;28;20133;-73
2020/12/13 18:04:50;;;;;;;6.00;4.53;;;;;;;7.99;72.27;99874.47;9763068;28;20740;-71
2020/12/13 18:09:52;;;;;;;8.05;5.13;;;;;;;7.95;71.96;99881.78;9775832;28;20061;-71
2020/12/13 18:14:56;;;;;;;9.38;7.32;;;;;;;7.90;72.30;99867.22;9776031;28;20122;-72
2020/12/13 18:20:06;;;;;;;10.27;7.50;;;;;;;7.98;72.10;99886.00;9803600;28;21565;-71
2020/12/13 18:25:07;;;;;;;15.55;13.77;;;;;;;7.95;71.26;99883.59;9776836;28;20493;-70
2020/12/13 18:30:10;;;;;;;9.07;5.63;;;;;;;7.92;71.23;99886.47;9781474;28;20054;-73
2020/12/13 18:35:11;;;;;;;9.57;7.72;;;;;;;7.96;71.06;99877.34;9784852;28;20125;-74
2020/12/13 18:40:12;;;;;;;8.43;6.07;;;;;;;7.84;70.44;99884.41;9782659;28;20058;-70
2020/12/13 18:45:14;;;;;;;6.60;4.90;;;;;;;7.77;70.28;99880.53;9785560;28;20066;-76
2020/12/13 18:50:15;;;;;;;7.50;4.63;;;;;;;7.73;70.72;99882.56;9763337;28;20065;-74
2020/12/13 18:55:16;;;;;;;8.50;5.45;;;;;;;7.77;70.72;99889.31;9783759;28;20055;-73
2020/12/13 19:00:18;;;;;;;7.50;6.47;;;;;;;7.84;70.76;99904.78;9770276;28;20585;-72
2020/12/13 19:05:21;;;;;;;6.00;5.40;;;;;;;7.64;70.37;99899.16;9767615;28;20102;-73
2020/12/13 19:10:23;;;;;;;7.60;5.60;;;;;;;7.67;71.74;99903.34;9768905;28;20078;-73
2020/12/13 19:15:25;;;;;;;7.95;6.20;;;;;;;7.65;71.90;99910.56;9774605;28;21224;-73
2020/12/13 19:20:27;;;;;;;8.38;6.22;;;;;;;7.51;72.14;99895.72;9759800;28;20568;-73
2020/12/13 19:25:28;;;;;;;8.25;6.68;;;;;;;7.64;72.42;99907.09;9775782;28;20421;-71
2020/12/13 19:30:32;;;;;;;7.35;6.20;;;;;;;7.55;71.93;99900.66;9796412;28;20058;-73
2020/12/13 19:35:35;;;;;;;7.00;6.27;;;;;;;7.42;72.84;99899.88;9778286;28;22702;-73
2020/12/13 19:40:37;;;;;;;10.10;7.25;;;;;;;7.41;72.54;99904.31;9758986;28;20113;-74
2020/12/13 19:45:38;;;;;;;10.00;6.70;;;;;;;7.46;73.21;99913.72;9778152;28;24639;-74
2020/12/13 19:50:39;;;;;;;9.32;6.75;;;;;;;7.39;72.86;99915.97;9784136;28;23621;-73
2020/12/13 19:55:44;;;;;;;9.65;6.85;;;;;;;7.41;72.97;99917.53;9797784;28;20063;-73
2020/12/13 20:00:47;;;;;;;8.83;7.90;;;;;;;7.37;73.28;99918.75;9781349;28;20144;-74
2020/12/13 20:05:49;;;;;;;9.35;6.72;;;;;;;7.34;73.14;99924.25;9771609;28;20441;-71
2020/12/13 20:10:50;;;;;;;8.00;6.40;;;;;;;7.23;73.83;99921.53;9764465;28;20636;-72
2020/12/13 21:10:37;;;;;;;7.30;6.57;;;;;;;7.54;72.85;99892.84;9788795;28;21648;-72
2020/12/13 21:19:12;;;;;;;9.43;7.93;;;;;;;7.32;72.63;99896.19;9793623;28;20043;-71
2020/12/13 21:45:14;;;;;;;10.27;7.72;;;;;;;7.21;73.67;99867.84;9804232;28;21194;-72
2020/12/13 22:01:12;;;;;;;9.93;6.43;;;;;;;7.17;73.48;99864.56;9773801;28;20055;-73
2020/12/13 22:27:33;;;;;;;9.38;6.78;;;;;;;7.02;74.75;99898.28;9747924;28;20113;-72
2020/12/13 22:32:34;;;;;;;10.80;6.82;;;;;;;7.02;74.68;99897.44;9768859;28;22265;-73
2020/12/13 22:37:35;;;;;;;9.25;7.82;;;;;;;7.04;74.63;99904.34;9798692;28;20893;-70
2020/12/13 22:42:36;;;;;;;12.18;7.03;;;;;;;7.00;74.50;99916.09;9811235;28;20086;-72
2020/12/13 22:47:38;;;;;;;7.40;6.68;;;;;;;7.04;75.04;99928.16;9792560;28;20095;-72
2020/12/13 22:52:39;;;;;;;7.32;6.43;;;;;;;7.00;75.01;99900.19;9795024;28;20134;-72
2020/12/13 22:57:42;;;;;;;7.40;6.40;;;;;;;7.04;74.98;99888.44;9784631;28;20141;-75
2020/12/13 23:02:43;;;;;;;7.82;7.00;;;;;;;7.03;74.63;99867.38;9781555;28;20058;-73
2020/12/13 23:07:44;;;;;;;7.22;5.88;;;;;;;6.94;74.86;99871.53;9764178;28;20133;-73
2020/12/13 23:12:46;;;;;;;7.18;6.35;;;;;;;6.80;75.57;99854.00;9776371;28;20059;-71
2020/12/13 23:17:47;;;;;;;6.40;5.60;;;;;;;6.67;75.53;99829.38;9757570;28;20055;-73
2020/12/13 23:22:48;;;;;;;7.15;6.38;;;;;;;6.60;75.95;99836.03;9764495;28;20465;-72
2020/12/13 23:27:50;;;;;;;8.95;6.15;;;;;;;6.47;76.68;99828.97;9785430;28;20106;-74
2020/12/13 23:32:58;;;;;;;6.32;5.22;;;;;;;6.39;76.96;99827.81;9751548;28;24170;-73
2020/12/13 23:38:00;;;;;;;7.53;5.63;;;;;;;6.36;76.70;99824.44;9781791;28;20107;-73
2020/12/13 23:43:02;;;;;;;6.45;5.50;;;;;;;6.40;76.72;99845.38;9776388;28;20444;-72
2020/12/13 23:48:03;;;;;;;6.72;5.10;;;;;;;6.40;77.05;99863.91;9774878;28;20465;-70
2020/12/13 23:53:06;;;;;;;8.23;5.70;;;;;;;6.39;76.88;99878.06;9791577;28;20393;-72
2020/12/13 23:58:07;;;;;;;7.70;5.40;;;;;;;6.35;77.00;99888.84;9777890;28;20062;-71
